Time;durP1;ratioP1;P1;durP2;ratioP2;P2;SDS_P1;SDS_P2;PMS_P1;PMS_P2;Temp;Humidity;BMP_temperature;BMP_pressure;BME280_temperature;BME280_humidity;BME280_pressure;Samples;Min_cycle;Max_cycle;Signal;HPM_P1;HPM_P2
2022/01/10 00:00:46;;;;;;;21.98;9.40;;;;;;;1.29;100.00;101128.41;5016757;28;20109;-73
2022/01/10 00:03:12;;;;;;;27.35;9.20;;;;;;;1.35;100.00;101133.06;5050748;28;20059;-73
2022/01/10 00:05:37;;;;;;;28.77;9.50;;;;;;;1.39;100.00;101144.50;5032868;28;20030;-73
2022/01/10 00:08:04;;;;;;;32.90;9.20;;;;;;;1.44;100.00;101145.66;5020112;28;20033;-72
2022/01/10 00:10:34;;;;;;;23.92;9.95;;;;;;;1.50;100.00;101156.41;5033073;28;20024;-72
2022/01/10 00:12:59;;;;;;;38.47;9.57;;;;;;;1.57;100.00;101160.25;5019656;28;20032;-72
2022/01/10 00:15:25;;;;;;;31.10;8.57;;;;;;;1.63;100.00;101158.91;5033210;28;20034;-72
2022/01/10 00:17:51;;;;;;;30.92;9.18;;;;;;;1.69;100.00;101163.53;5034764;28;20039;-73
2022/01/10 00:20:18;;;;;;;41.38;9.38;;;;;;;1.72;100.00;101158.53;5033711;28;20120;-73
2022/01/10 00:22:49;;;;;;;20.73;8.27;;;;;;;1.77;100.00;101166.59;5018918;28;20045;-73
2022/01/10 00:25:18;;;;;;;28.45;8.13;;;;;;;1.87;100.00;101165.41;5032532;28;20040;-73
2022/01/10 00:27:43;;;;;;;33.67;8.98;;;;;;;1.91;100.00;101173.44;5031514;28;20032;-72
2022/01/10 00:30:10;;;;;;;31.38;8.48;;;;;;;1.95;100.00;101172.81;5028087;28;20026;-72
2022/01/10 00:32:41;;;;;;;25.75;8.25;;;;;;;1.99;100.00;101172.19;5026153;28;20084;-73
2022/01/10 00:35:07;;;;;;;31.67;8.57;;;;;;;1.99;100.00;101179.06;5029668;28;20033;-73
2022/01/10 00:37:34;;;;;;;29.25;8.82;;;;;;;1.98;100.00;101177.28;5029853;28;20068;-72
2022/01/10 00:40:00;;;;;;;32.70;8.30;;;;;;;1.97;100.00;101173.78;5026407;28;20029;-73
2022/01/10 00:42:25;;;;;;;24.42;7.40;;;;;;;1.94;100.00;101178.81;5023934;28;20025;-73
2022/01/10 00:44:53;;;;;;;26.23;8.57;;;;;;;1.90;100.00;101174.28;5029797;28;20085;-73
2022/01/10 00:47:19;;;;;;;22.58;7.53;;;;;;;1.87;100.00;101202.63;5021555;28;20714;-73
2022/01/10 00:49:46;;;;;;;28.92;8.35;;;;;;;1.83;100.00;101209.34;5035686;28;20096;-73
2022/01/10 00:52:12;;;;;;;28.33;7.57;;;;;;;1.82;100.00;101214.44;5032598;28;20025;-73
2022/01/10 00:54:38;;;;;;;23.25;7.65;;;;;;;1.82;100.00;101197.16;5007647;28;20113;-74
2022/01/10 00:57:04;;;;;;;23.15;7.68;;;;;;;1.86;100.00;101208.63;5028548;28;20033;-74
2022/01/10 00:59:30;;;;;;;31.05;9.20;;;;;;;1.91;100.00;101216.66;5017399;28;20034;-73
2022/01/10 01:01:57;;;;;;;30.05;7.93;;;;;;;1.94;100.00;101222.94;5028617;28;20167;-75
2022/01/10 01:04:22;;;;;;;33.25;8.82;;;;;;;1.98;100.00;101230.09;5025358;28;20022;-73
2022/01/10 01:06:48;;;;;;;30.90;8.50;;;;;;;2.00;100.00;101243.16;5019206;28;20034;-73
2022/01/10 01:09:17;;;;;;;26.67;8.98;;;;;;;1.99;100.00;101236.16;5025071;28;20381;-73
2022/01/10 01:14:37;;;;;;;37.75;8.05;;;;;;;2.01;100.00;101234.56;5033716;28;20033;-72
2022/01/10 01:17:13;;;;;;;24.25;7.00;;;;;;;2.04;100.00;101249.44;5031244;28;20025;-74
2022/01/10 01:25:00;;;;;;;18.08;7.72;;;;;;;2.06;100.00;101240.91;5016575;28;20096;-72
2022/01/10 01:27:25;;;;;;;36.30;9.52;;;;;;;2.09;100.00;101242.78;5032652;28;20045;-73
2022/01/10 01:29:50;;;;;;;28.40;8.98;;;;;;;2.16;100.00;101244.94;5016583;28;20034;-73
2022/01/10 01:32:16;;;;;;;29.50;8.88;;;;;;;2.20;100.00;101254.69;5024008;28;20041;-73
2022/01/10 01:34:41;;;;;;;37.05;9.10;;;;;;;2.21;100.00;101247.78;5019035;28;20057;-73
2022/01/10 01:37:09;;;;;;;51.85;9.93;;;;;;;2.26;100.00;101257.63;5027268;28;20116;-73
2022/01/10 01:39:35;;;;;;;25.27;9.15;;;;;;;2.27;100.00;101268.91;5020062;28;20117;-72
2022/01/10 01:42:16;;;;;;;43.83;11.40;;;;;;;2.27;100.00;101264.59;5031665;28;20033;-73
2022/01/10 01:44:42;;;;;;;34.63;9.52;;;;;;;2.28;100.00;101266.41;5016265;28;20050;-72
2022/01/10 01:47:07;;;;;;;28.80;9.15;;;;;;;2.31;100.00;101273.47;5034396;28;20061;-73
2022/01/10 01:49:32;;;;;;;37.35;9.13;;;;;;;2.40;100.00;101280.88;5033269;28;20021;-73
2022/01/10 01:51:58;;;;;;;31.98;9.13;;;;;;;2.41;100.00;101274.88;5018421;28;20044;-73
2022/01/10 01:54:24;;;;;;;37.20;9.25;;;;;;;2.43;100.00;101286.25;5046236;28;20401;-73
2022/01/10 01:56:51;;;;;;;35.75;8.65;;;;;;;2.40;100.00;101294.78;5030238;28;20032;-73
2022/01/10 01:59:17;;;;;;;24.35;8.05;;;;;;;2.35;100.00;101304.88;5028470;28;20041;-74
2022/01/10 02:01:42;;;;;;;32.35;9.82;;;;;;;2.34;100.00;101308.28;5031111;28;20083;-73
2022/01/10 02:04:08;;;;;;;33.55;9.18;;;;;;;2.29;100.00;101311.44;5023573;28;20367;-73
2022/01/10 02:06:33;;;;;;;26.20;8.68;;;;;;;2.25;100.00;101312.06;5028022;28;20025;-72
2022/01/10 02:08:58;;;;;;;30.75;9.32;;;;;;;2.22;100.00;101317.97;5020805;28;20055;-72
2022/01/10 02:11:24;;;;;;;39.75;11.10;;;;;;;2.22;100.00;101327.47;5022274;28;20033;-73
2022/01/10 02:13:49;;;;;;;30.30;10.07;;;;;;;2.24;100.00;101328.44;5030273;28;20029;-73
2022/01/10 02:16:22;;;;;;;27.48;8.93;;;;;;;2.23;100.00;101337.94;5028964;28;20037;-74
2022/01/10 02:18:49;;;;;;;32.80;10.55;;;;;;;2.22;100.00;101343.94;5033582;28;20036;-73
2022/01/10 02:21:15;;;;;;;30.77;9.55;;;;;;;2.22;100.00;101338.75;5031858;28;20351;-74
2022/01/10 02:23:41;;;;;;;35.15;12.20;;;;;;;2.24;100.00;101347.53;5029730;28;20029;-73
2022/01/10 02:26:07;;;;;;;36.22;10.63;;;;;;;2.29;100.00;101353.91;5030909;28;20033;-74
2022/01/10 02:28:32;;;;;;;37.35;12.13;;;;;;;2.36;100.00;101353.44;5046179;28;20017;-74
2022/01/10 02:30:58;;;;;;;32.70;12.60;;;;;;;2.44;100.00;101358.16;5031834;28;20473;-74
2022/01/10 02:33:28;;;;;;;36.13;12.98;;;;;;;2.43;100.00;101364.16;5021189;28;20421;-73
2022/01/10 02:38:23;;;;;;;35.75;12.57;;;;;;;2.42;100.00;101377.97;5027764;28;20076;-73
2022/01/10 02:40:50;;;;;;;41.63;12.63;;;;;;;2.43;100.00;101382.34;5021308;28;20770;-73
2022/01/10 02:43:15;;;;;;;31.20;12.15;;;;;;;2.43;100.00;101396.25;5028569;28;20024;-74
2022/01/10 02:45:40;;;;;;;30.52;11.75;;;;;;;2.41;100.00;101392.66;5022335;28;20033;-73
2022/01/10 02:48:06;;;;;;;48.10;13.43;;;;;;;2.43;100.00;101392.72;5026349;28;20480;-73
2022/01/10 02:50:31;;;;;;;35.28;12.57;;;;;;;2.44;100.00;101402.31;5020509;28;20030;-73
2022/01/10 02:52:56;;;;;;;26.92;12.07;;;;;;;2.42;100.00;101403.94;5019763;28;20026;-73
2022/01/10 02:55:22;;;;;;;46.67;12.98;;;;;;;2.38;100.00;101404.56;5023535;28;20025;-73
2022/01/10 02:57:47;;;;;;;36.58;12.23;;;;;;;2.31;100.00;101404.19;5033187;28;20071;-72
2022/01/10 03:00:16;;;;;;;28.67;12.02;;;;;;;2.24;100.00;101409.84;5030214;28;20109;-73
2022/01/10 03:02:44;;;;;;;32.83;12.40;;;;;;;2.21;100.00;101409.63;5020790;28;20037;-72
2022/01/10 03:05:11;;;;;;;28.65;12.52;;;;;;;2.17;100.00;101418.97;5028924;28;20048;-72
2022/01/10 03:07:38;;;;;;;28.58;12.55;;;;;;;2.17;100.00;101418.06;5032442;28;20037;-73
2022/01/10 03:10:05;;;;;;;40.42;13.95;;;;;;;2.17;100.00;101418.06;5025062;28;20089;-73
2022/01/10 03:12:31;;;;;;;27.95;11.63;;;;;;;2.12;100.00;101422.09;5015540;28;20536;-73
2022/01/10 03:15:00;;;;;;;38.63;14.27;;;;;;;2.15;100.00;101427.47;5027067;28;20033;-73
2022/01/10 03:17:26;;;;;;;33.35;14.00;;;;;;;2.17;100.00;101428.44;5020280;28;20397;-73
2022/01/10 03:19:52;;;;;;;33.95;13.77;;;;;;;2.18;100.00;101430.25;5025475;28;20041;-74
2022/01/10 03:22:17;;;;;;;47.88;15.35;;;;;;;2.22;100.00;101439.13;5034812;28;20473;-73
2022/01/10 03:24:43;;;;;;;38.50;13.88;;;;;;;2.22;100.00;101441.72;5018708;28;20048;-73
2022/01/10 03:27:08;;;;;;;38.85;16.17;;;;;;;2.24;100.00;101443.59;5036436;28;20033;-73
2022/01/10 03:29:34;;;;;;;44.80;16.80;;;;;;;2.28;100.00;101453.38;5021798;28;20037;-72
2022/01/10 03:32:01;;;;;;;34.20;16.73;;;;;;;2.31;100.00;101460.44;5031463;28;20052;-73
2022/01/10 03:34:28;;;;;;;38.10;16.33;;;;;;;2.34;100.00;101464.09;5034538;28;20035;-73
2022/01/10 03:36:53;;;;;;;40.28;16.77;;;;;;;2.34;100.00;101474.50;5034077;28;20033;-73
2022/01/10 03:39:18;;;;;;;38.40;17.17;;;;;;;2.38;100.00;101474.69;5020250;28;20529;-73
2022/01/10 03:41:44;;;;;;;41.97;17.60;;;;;;;2.41;100.00;101475.75;5036919;28;20034;-72
2022/01/10 03:44:09;;;;;;;38.22;17.30;;;;;;;2.44;100.00;101491.56;5032141;28;20468;-73
2022/01/10 03:46:34;;;;;;;50.30;18.15;;;;;;;2.46;100.00;101486.44;5018722;28;20489;-73
2022/01/10 03:49:01;;;;;;;49.40;17.13;;;;;;;2.49;100.00;101494.41;5030345;28;20033;-73
2022/01/10 03:51:27;;;;;;;45.95;18.48;;;;;;;2.50;100.00;101496.22;5032697;28;20144;-72
2022/01/10 03:53:53;;;;;;;44.22;17.92;;;;;;;2.54;100.00;101498.19;5021800;28;20037;-73
2022/01/10 03:56:20;;;;;;;43.55;18.45;;;;;;;2.58;100.00;101504.44;5026848;28;20029;-73
2022/01/10 03:58:45;;;;;;;42.10;17.27;;;;;;;2.61;100.00;101497.72;5030076;28;20041;-74
2022/01/10 04:01:13;;;;;;;55.85;17.88;;;;;;;2.67;100.00;101498.13;5045955;28;20033;-73
2022/01/10 04:03:38;;;;;;;36.88;18.85;;;;;;;2.70;100.00;101503.47;5025295;28;20389;-73
2022/01/10 04:06:04;;;;;;;40.50;19.92;;;;;;;2.74;100.00;101501.06;5020037;28;20022;-73
2022/01/10 04:08:30;;;;;;;39.47;19.25;;;;;;;2.80;100.00;101502.31;5035542;28;20029;-73
2022/01/10 04:10:56;;;;;;;43.85;18.80;;;;;;;2.83;100.00;101506.78;5031200;28;20018;-73
2022/01/10 04:13:23;;;;;;;48.58;19.83;;;;;;;2.89;100.00;101501.97;5033129;28;20033;-73
2022/01/10 04:15:48;;;;;;;42.38;21.05;;;;;;;2.94;100.00;101505.72;5036389;28;20489;-73
2022/01/10 04:18:14;;;;;;;52.38;20.52;;;;;;;2.98;100.00;101515.47;5036367;28;20037;-74
2022/01/10 04:20:39;;;;;;;44.10;19.70;;;;;;;3.02;100.00;101514.84;5031814;28;20073;-73
2022/01/10 04:23:05;;;;;;;50.60;19.98;;;;;;;3.08;100.00;101523.81;5029848;28;20465;-73
2022/01/10 04:25:30;;;;;;;39.63;18.70;;;;;;;3.11;100.00;101524.91;5034037;28;20029;-73
2022/01/10 04:27:55;;;;;;;49.83;19.20;;;;;;;3.17;100.00;101537.34;5029633;28;20030;-73
2022/01/10 04:30:21;;;;;;;45.45;18.42;;;;;;;3.17;100.00;101542.56;5015515;28;20113;-74
2022/01/10 04:32:46;;;;;;;41.92;18.67;;;;;;;3.19;100.00;101543.56;5026177;28;20041;-73
2022/01/10 04:35:12;;;;;;;41.72;17.90;;;;;;;3.18;100.00;101542.63;5026419;28;20486;-74
2022/01/10 04:37:38;;;;;;;36.13;16.83;;;;;;;3.18;100.00;101562.56;5035094;28;20053;-74
2022/01/10 04:40:04;;;;;;;41.42;17.30;;;;;;;3.17;100.00;101566.88;5026871;28;20104;-72
2022/01/10 04:42:29;;;;;;;45.83;17.67;;;;;;;3.15;100.00;101572.78;5018442;28;20025;-73
2022/01/10 04:44:55;;;;;;;35.80;16.30;;;;;;;3.19;100.00;101585.16;5011438;28;20045;-73
2022/01/10 04:47:20;;;;;;;48.58;18.02;;;;;;;3.19;100.00;101586.06;5030007;28;20018;-73
2022/01/10 04:52:30;;;;;;;35.20;17.38;;;;;;;3.20;100.00;101593.06;5032686;28;20472;-73
2022/01/10 04:54:56;;;;;;;40.03;18.63;;;;;;;3.23;100.00;101602.75;5024632;28;20033;-73
2022/01/10 04:57:22;;;;;;;35.20;16.17;;;;;;;3.27;100.00;101598.59;5031288;28;20029;-73
2022/01/10 04:59:48;;;;;;;38.65;16.77;;;;;;;3.30;100.00;101611.81;5032743;28;20033;-73
2022/01/10 05:02:13;;;;;;;31.05;16.88;;;;;;;3.30;100.00;101614.41;5025776;28;20026;-73
2022/01/10 05:04:39;;;;;;;44.05;17.15;;;;;;;3.30;100.00;101612.69;5028845;28;20038;-73
2022/01/10 05:07:04;;;;;;;39.35;16.25;;;;;;;3.26;100.00;101618.53;5035422;28;20531;-74
2022/01/10 05:09:29;;;;;;;32.90;16.15;;;;;;;3.21;100.00;101622.53;5033415;28;20040;-73
2022/01/10 05:11:55;;;;;;;36.85;16.85;;;;;;;3.20;100.00;101612.94;5020938;28;20370;-72
2022/01/10 05:14:21;;;;;;;35.58;16.15;;;;;;;3.17;100.00;101623.16;5031347;28;20025;-72
2022/01/10 05:16:47;;;;;;;37.50;17.02;;;;;;;3.11;100.00;101628.91;5033254;28;20402;-72
2022/01/10 05:19:12;;;;;;;37.47;17.08;;;;;;;3.06;100.00;101630.34;5034986;28;20060;-72
2022/01/10 05:21:37;;;;;;;30.98;16.42;;;;;;;3.01;100.00;101636.97;5032336;28;20397;-73
2022/01/10 05:24:03;;;;;;;31.08;16.15;;;;;;;2.96;100.00;101638.41;5013754;28;20022;-72
2022/01/10 05:26:28;;;;;;;38.97;16.70;;;;;;;2.90;100.00;101640.63;5026246;28;20036;-72
2022/01/10 05:28:55;;;;;;;45.30;19.48;;;;;;;2.88;100.00;101650.94;5023730;28;20067;-73
2022/01/10 05:31:21;;;;;;;40.50;18.50;;;;;;;2.87;100.00;101659.53;5033614;28;20034;-72
2022/01/10 05:33:47;;;;;;;40.88;18.25;;;;;;;2.88;100.00;101661.34;5016069;28;20026;-73
2022/01/10 05:36:12;;;;;;;44.25;19.00;;;;;;;2.86;100.00;101660.31;5034292;28;20092;-73
2022/01/10 05:38:37;;;;;;;32.22;18.27;;;;;;;2.85;100.00;101672.44;5034928;28;20046;-72
2022/01/10 05:41:02;;;;;;;37.45;18.88;;;;;;;2.86;100.00;101683.72;5031037;28;20053;-73
2022/01/10 05:43:28;;;;;;;39.65;18.95;;;;;;;2.81;100.00;101685.16;5028522;28;20477;-72
2022/01/10 05:45:55;;;;;;;41.35;19.17;;;;;;;2.80;100.00;101688.56;5015537;28;20036;-71
2022/01/10 05:48:26;;;;;;;37.80;19.15;;;;;;;2.77;100.00;101683.16;5030708;28;20025;-72
2022/01/10 05:50:53;;;;;;;35.97;18.35;;;;;;;2.75;100.00;101695.16;5024665;28;20088;-73
2022/01/10 05:53:19;;;;;;;42.78;19.30;;;;;;;2.73;100.00;101695.06;5028540;28;20037;-72
2022/01/10 05:55:45;;;;;;;47.53;19.55;;;;;;;2.73;100.00;101694.16;5021313;28;20051;-73
2022/01/10 05:58:11;;;;;;;41.55;19.33;;;;;;;2.74;100.00;101695.97;5031892;28;20108;-73
2022/01/10 06:00:37;;;;;;;42.03;20.13;;;;;;;2.74;100.00;101703.75;5029232;28;20137;-73
2022/01/10 06:03:03;;;;;;;40.20;19.55;;;;;;;2.74;100.00;101709.88;5024281;28;20108;-73
2022/01/10 06:05:31;;;;;;;44.38;20.63;;;;;;;2.77;100.00;101714.34;5019401;28;20117;-73
2022/01/10 06:08:02;;;;;;;35.25;19.08;;;;;;;2.77;100.00;101724.72;5018664;28;20033;-74
2022/01/10 06:10:28;;;;;;;39.83;20.20;;;;;;;2.76;100.00;101723.84;5017454;28;20087;-73
2022/01/10 06:12:53;;;;;;;41.65;19.88;;;;;;;2.78;100.00;101726.53;5022370;28;20026;-72
2022/01/10 06:15:19;;;;;;;34.78;19.92;;;;;;;2.79;100.00;101730.94;5026071;28;20045;-72
2022/01/10 06:17:45;;;;;;;49.13;20.30;;;;;;;2.81;100.00;101737.16;5017716;28;20034;-73
2022/01/10 06:20:11;;;;;;;44.17;22.10;;;;;;;2.82;100.00;101738.91;5026724;28;20072;-73
2022/01/10 06:22:37;;;;;;;41.42;22.17;;;;;;;2.85;100.00;101750.41;5015413;28;20049;-73
2022/01/10 06:25:04;;;;;;;44.95;22.15;;;;;;;2.92;100.00;101753.41;5033021;28;20026;-73
2022/01/10 06:27:30;;;;;;;49.40;21.85;;;;;;;2.92;100.00;101754.31;5024175;28;20038;-73
2022/01/10 06:29:55;;;;;;;51.45;24.08;;;;;;;2.93;100.00;101763.91;5022284;28;20363;-74
2022/01/10 06:32:21;;;;;;;46.30;23.60;;;;;;;2.93;100.00;101762.97;5026129;28;20109;-74
2022/01/10 06:34:46;;;;;;;41.88;22.15;;;;;;;2.93;100.00;101760.38;5015132;28;20034;-74
2022/01/10 06:37:12;;;;;;;43.72;22.65;;;;;;;2.92;100.00;101769.91;5023577;28;20038;-74
2022/01/10 06:39:38;;;;;;;42.83;22.10;;;;;;;2.92;100.00;101772.50;5031810;28;20113;-73
2022/01/10 06:42:04;;;;;;;44.97;22.63;;;;;;;2.90;100.00;101768.88;5022793;28;20021;-73
2022/01/10 06:44:29;;;;;;;42.25;22.30;;;;;;;2.89;100.00;101776.59;5030683;28;20040;-72
2022/01/10 06:46:55;;;;;;;43.00;22.33;;;;;;;2.88;100.00;101783.50;5028653;28;20515;-71
2022/01/10 06:49:20;;;;;;;45.45;21.90;;;;;;;2.88;100.00;101788.72;5019726;28;20144;-71
2022/01/10 06:51:45;;;;;;;38.85;21.52;;;;;;;2.87;100.00;101793.00;5016551;28;20032;-71
2022/01/10 06:54:11;;;;;;;46.45;23.25;;;;;;;2.91;100.00;101794.09;5013874;28;20466;-73
2022/01/10 06:56:36;;;;;;;45.97;21.58;;;;;;;2.95;100.00;101803.88;5022503;28;20495;-71
2022/01/10 06:59:02;;;;;;;42.53;24.00;;;;;;;2.98;100.00;101809.25;5031806;28;20079;-71
2022/01/10 07:01:28;;;;;;;47.85;24.58;;;;;;;2.99;100.00;101816.25;5019299;28;20029;-71
2022/01/10 07:03:54;;;;;;;42.55;23.55;;;;;;;3.00;100.00;101815.47;5016307;28;20032;-72
2022/01/10 07:06:20;;;;;;;49.00;23.92;;;;;;;3.00;100.00;101823.28;5018804;28;20037;-70
2022/01/10 07:08:45;;;;;;;55.13;24.98;;;;;;;2.97;100.00;101837.78;5025068;28;20033;-72
2022/01/10 07:11:11;;;;;;;40.83;23.23;;;;;;;2.94;100.00;101835.88;5023789;28;20020;-72
2022/01/10 07:13:36;;;;;;;38.88;22.65;;;;;;;2.92;100.00;101850.50;5016089;28;20560;-72
2022/01/10 07:16:02;;;;;;;50.92;23.10;;;;;;;2.89;100.00;101855.50;5019010;28;20104;-72
2022/01/10 07:18:27;;;;;;;50.33;23.17;;;;;;;2.86;100.00;101865.69;5020353;28;20071;-71
2022/01/10 07:20:52;;;;;;;46.92;23.77;;;;;;;2.84;100.00;101863.00;5011804;28;20014;-72
2022/01/10 07:23:18;;;;;;;42.40;23.00;;;;;;;2.83;100.00;101871.56;5017202;28;20053;-71
2022/01/10 07:25:43;;;;;;;45.72;25.27;;;;;;;2.83;100.00;101891.47;5020917;28;20033;-71
2022/01/10 07:28:08;;;;;;;46.97;24.45;;;;;;;2.82;100.00;101885.41;5018370;28;20032;-71
2022/01/10 07:30:34;;;;;;;47.47;25.00;;;;;;;2.83;100.00;101899.28;5025786;28;20147;-71
2022/01/10 07:32:59;;;;;;;51.90;25.85;;;;;;;2.84;100.00;101903.69;5031779;28;20026;-70
2022/01/10 07:35:25;;;;;;;42.67;25.75;;;;;;;2.84;100.00;101914.09;5029248;28;20029;-71
2022/01/10 07:37:50;;;;;;;61.13;28.10;;;;;;;2.84;100.00;101919.28;5021105;28;20486;-72
2022/01/10 07:40:15;;;;;;;43.15;25.20;;;;;;;2.83;100.00;101926.16;5020836;28;20486;-72
2022/01/10 07:42:41;;;;;;;48.92;25.45;;;;;;;2.83;100.00;101928.75;5017834;28;20060;-71
2022/01/10 07:45:07;;;;;;;50.10;27.83;;;;;;;2.83;100.00;101936.56;5012517;28;20038;-71
2022/01/10 07:47:33;;;;;;;62.67;28.38;;;;;;;2.83;100.00;101943.47;5028770;28;20517;-72
2022/01/10 07:49:59;;;;;;;66.70;28.45;;;;;;;2.84;100.00;101942.69;5018483;28;20474;-71
2022/01/10 07:52:26;;;;;;;50.40;28.75;;;;;;;2.84;100.00;101943.56;5020306;28;20028;-73
2022/01/10 07:54:52;;;;;;;55.42;29.15;;;;;;;2.86;100.00;101954.97;5017965;28;20169;-73
2022/01/10 07:57:17;;;;;;;61.67;30.23;;;;;;;2.89;100.00;101956.88;5018284;28;20100;-72
2022/01/10 07:59:44;;;;;;;50.95;28.00;;;;;;;2.94;100.00;101959.78;5021504;28;20180;-70
2022/01/10 08:02:10;;;;;;;64.22;30.30;;;;;;;2.97;100.00;101972.97;5013324;28;20493;-72
2022/01/10 08:04:36;;;;;;;64.10;32.88;;;;;;;3.00;100.00;101974.06;5013970;28;20094;-72
2022/01/10 08:07:02;;;;;;;64.50;31.67;;;;;;;3.03;100.00;101979.47;5021525;28;20030;-74
2022/01/10 08:09:28;;;;;;;61.58;31.42;;;;;;;3.08;100.00;101981.47;5021101;28;20034;-73
2022/01/10 08:11:59;;;;;;;58.13;30.45;;;;;;;3.08;100.00;101985.00;5029454;28;20500;-74
2022/01/10 08:14:25;;;;;;;63.03;29.75;;;;;;;3.11;100.00;101986.91;5028847;28;20029;-74
2022/01/10 08:16:50;;;;;;;54.85;31.17;;;;;;;3.14;100.00;101992.28;5023183;28;20041;-73
2022/01/10 08:19:15;;;;;;;57.60;30.65;;;;;;;3.17;100.00;101997.69;5030445;28;20071;-73
2022/01/10 08:21:41;;;;;;;60.17;31.40;;;;;;;3.20;100.00;102005.66;5022184;28;20030;-72
2022/01/10 08:24:06;;;;;;;61.08;31.65;;;;;;;3.25;100.00;102006.00;5023481;28;20404;-72
2022/01/10 08:26:31;;;;;;;63.53;33.42;;;;;;;3.31;100.00;102014.19;5026865;28;20470;-72
2022/01/10 08:28:57;;;;;;;71.95;33.05;;;;;;;3.35;100.00;102024.91;5018690;28;20034;-72
2022/01/10 08:31:22;;;;;;;64.47;32.22;;;;;;;3.40;100.00;102029.50;5023357;28;20049;-72
2022/01/10 08:33:48;;;;;;;63.05;34.25;;;;;;;3.44;100.00;102034.09;5029419;28;20036;-72
2022/01/10 08:36:14;;;;;;;59.67;33.33;;;;;;;3.47;100.00;102035.22;5025067;28;20021;-72
2022/01/10 08:38:40;;;;;;;64.40;32.88;;;;;;;3.50;100.00;102032.78;5032116;28;20052;-72
2022/01/10 08:41:06;;;;;;;55.10;31.35;;;;;;;3.57;100.00;102035.78;5029488;28;20029;-72
2022/01/10 08:43:31;;;;;;;54.58;30.73;;;;;;;3.59;100.00;102044.59;5020841;28;20104;-72
2022/01/10 08:45:56;;;;;;;61.70;31.77;;;;;;;3.64;100.00;102043.19;5027711;28;20037;-72
2022/01/10 08:48:22;;;;;;;55.22;30.17;;;;;;;3.67;100.00;102044.28;5022502;28;20032;-73
2022/01/10 08:50:47;;;;;;;55.67;30.25;;;;;;;3.68;100.00;102040.00;5033577;28;20063;-73
2022/01/10 08:53:13;;;;;;;59.88;30.25;;;;;;;3.70;100.00;102049.69;5026029;28;20022;-72
2022/01/10 08:55:39;;;;;;;57.25;30.63;;;;;;;3.73;100.00;102046.41;5036468;28;20030;-72
2022/01/10 08:58:04;;;;;;;55.45;29.02;;;;;;;3.77;100.00;102056.19;5041460;28;20033;-72
2022/01/10 09:00:30;;;;;;;60.70;30.10;;;;;;;3.81;100.00;102062.47;5038045;28;20435;-73
2022/01/10 09:02:55;;;;;;;62.80;30.05;;;;;;;3.85;100.00;102059.28;5048048;28;20028;-73
2022/01/10 09:05:20;;;;;;;57.50;31.80;;;;;;;3.88;100.00;102065.59;5030453;28;20085;-73
2022/01/10 09:07:46;;;;;;;54.50;29.55;;;;;;;3.93;100.00;102068.47;5023967;28;20539;-73
2022/01/10 09:10:12;;;;;;;50.05;30.05;;;;;;;3.97;100.00;102072.16;5024321;28;20029;-72
2022/01/10 09:12:38;;;;;;;53.42;29.98;;;;;;;4.01;100.00;102072.44;5024705;28;20029;-73
2022/01/10 09:15:05;;;;;;;55.80;29.50;;;;;;;4.08;100.00;102083.28;5033086;28;20064;-72
2022/01/10 09:17:31;;;;;;;62.20;29.85;;;;;;;4.18;100.00;102077.84;5017078;28;20037;-72
2022/01/10 09:19:56;;;;;;;47.83;27.77;;;;;;;4.21;100.00;102080.63;5024689;28;20056;-73
2022/01/10 09:22:21;;;;;;;49.50;28.00;;;;;;;4.27;100.00;102086.22;5042957;28;20025;-71
2022/01/10 09:24:47;;;;;;;45.60;27.08;;;;;;;4.30;100.00;102082.91;5031037;28;20091;-73
2022/01/10 09:27:13;;;;;;;57.05;29.65;;;;;;;4.36;100.00;102086.78;5029531;28;20083;-73
2022/01/10 09:29:40;;;;;;;45.05;25.70;;;;;;;4.43;100.00;102087.19;5024295;28;20052;-72
2022/01/10 09:32:06;;;;;;;46.13;25.70;;;;;;;4.45;100.00;102090.75;5023510;28;20018;-72
2022/01/10 09:34:31;;;;;;;50.42;25.48;;;;;;;4.52;100.00;102103.38;5026700;28;20040;-72
2022/01/10 09:36:57;;;;;;;48.78;24.55;;;;;;;4.57;100.00;102101.94;5025574;28;20800;-71
2022/01/10 09:39:23;;;;;;;51.15;26.30;;;;;;;4.62;100.00;102113.56;5023543;28;20105;-73
2022/01/10 09:41:48;;;;;;;44.42;24.48;;;;;;;4.70;100.00;102109.72;5023831;28;20018;-73
2022/01/10 09:44:15;;;;;;;48.90;24.40;;;;;;;4.77;100.00;102123.13;5024526;28;20045;-70
2022/01/10 09:46:40;;;;;;;47.67;23.25;;;;;;;4.83;100.00;102120.88;5018432;28;20144;-71
2022/01/10 09:49:06;;;;;;;44.95;22.45;;;;;;;4.90;100.00;102128.28;5029052;28;20496;-71
2022/01/10 09:51:32;;;;;;;47.83;22.48;;;;;;;4.94;100.00;102130.28;5025770;28;20112;-72
2022/01/10 09:54:00;;;;;;;40.20;21.67;;;;;;;5.04;100.00;102136.94;5026354;28;20460;-71
2022/01/10 09:56:29;;;;;;;40.25;20.50;;;;;;;5.09;100.00;102147.63;5018805;28;20088;-72
2022/01/10 09:58:54;;;;;;;33.08;19.52;;;;;;;5.18;100.00;102145.56;5018504;28;20038;-73
2022/01/10 10:01:21;;;;;;;35.83;20.40;;;;;;;5.25;100.00;102150.38;5020672;28;20036;-72
2022/01/10 10:03:48;;;;;;;32.70;19.45;;;;;;;5.30;100.00;102141.06;5016531;28;20507;-72
2022/01/10 10:06:15;;;;;;;39.42;19.60;;;;;;;5.34;100.00;102148.28;5024944;28;20067;-71
2022/01/10 10:08:42;;;;;;;34.08;18.92;;;;;;;5.43;100.00;102158.38;5017744;28;20033;-73
2022/01/10 10:11:08;;;;;;;33.40;18.42;;;;;;;5.50;100.00;102164.88;5028314;28;20025;-73
2022/01/10 10:13:43;;;;;;;34.42;18.00;;;;;;;5.60;100.00;102166.28;5030545;28;20079;-73
2022/01/10 10:16:13;;;;;;;31.58;18.88;;;;;;;5.61;100.00;102176.81;5015679;28;20030;-70
2022/01/10 10:18:39;;;;;;;31.45;18.13;;;;;;;5.65;100.00;102176.19;5017730;28;20466;-71
2022/01/10 10:21:11;;;;;;;29.13;16.42;;;;;;;5.67;100.00;102194.56;5011516;28;20034;-71
2022/01/10 10:23:36;;;;;;;31.73;17.48;;;;;;;5.61;100.00;102194.22;5014532;28;20026;-70
2022/01/10 10:26:04;;;;;;;34.45;17.27;;;;;;;5.64;100.00;102197.00;5026836;28;20052;-71
2022/01/10 10:28:29;;;;;;;36.10;16.48;;;;;;;5.65;100.00;102201.41;5029673;28;20028;-71
2022/01/10 10:30:58;;;;;;;37.22;17.25;;;;;;;5.68;100.00;102202.50;5025030;28;20030;-71
2022/01/10 10:33:25;;;;;;;33.20;17.13;;;;;;;5.71;100.00;102204.38;5032319;28;20512;-71
2022/01/10 10:36:03;;;;;;;35.83;17.33;;;;;;;5.72;100.00;102207.09;5021661;28;20104;-70
2022/01/10 10:38:29;;;;;;;29.25;16.17;;;;;;;5.74;100.00;102213.28;5022455;28;20054;-72
2022/01/10 10:41:00;;;;;;;35.50;17.38;;;;;;;5.72;100.00;102220.16;5013613;28;20057;-70
2022/01/10 10:43:25;;;;;;;33.70;17.23;;;;;;;5.71;100.00;102226.19;5031495;28;20384;-71
2022/01/10 10:45:51;;;;;;;36.95;15.85;;;;;;;5.71;100.00;102218.34;5019983;28;20172;-71
2022/01/10 10:48:17;;;;;;;27.90;16.20;;;;;;;5.69;100.00;102227.78;5032550;28;20033;-71
2022/01/10 10:50:47;;;;;;;36.42;17.63;;;;;;;5.67;100.00;102232.03;5020077;28;20706;-70
2022/01/10 10:53:14;;;;;;;29.15;16.02;;;;;;;5.66;100.00;102245.91;5015636;28;20041;-71
2022/01/10 10:55:42;;;;;;;30.08;17.63;;;;;;;5.68;100.00;102239.06;5037132;28;20041;-71
2022/01/10 10:58:09;;;;;;;29.00;17.90;;;;;;;5.73;100.00;102248.03;5025118;28;20447;-71
2022/01/10 11:00:35;;;;;;;32.25;16.33;;;;;;;5.81;100.00;102245.91;5029298;28;20477;-69
2022/01/10 11:03:01;;;;;;;32.53;15.63;;;;;;;5.88;100.00;102255.88;5021180;28;20034;-71
2022/01/10 11:05:27;;;;;;;28.98;16.25;;;;;;;5.97;100.00;102257.22;5029857;28;20044;-72
2022/01/10 11:07:52;;;;;;;40.60;16.77;;;;;;;6.04;100.00;102260.31;5020371;28;20056;-74
2022/01/10 11:10:18;;;;;;;34.90;16.13;;;;;;;6.14;100.00;102259.13;5018691;28;20423;-74
2022/01/10 11:12:50;;;;;;;31.15;14.55;;;;;;;6.23;100.00;102258.78;5015057;28;20045;-73
2022/01/10 11:15:16;;;;;;;29.55;14.48;;;;;;;6.28;100.00;102265.19;5023569;28;20033;-74
2022/01/10 11:17:42;;;;;;;43.55;15.02;;;;;;;6.32;100.00;102261.94;5026269;28;20064;-73
2022/01/10 11:20:21;;;;;;;28.35;13.02;;;;;;;6.36;100.00;102269.13;5027476;28;20053;-74